sensor_id;sensor_type;location;lat;lon;timestamp;pressure;altitude;pressure_sealevel;temperature
39959;BMP280;25639;53.634;9.880;2023-02-28T00:02:19;150185.59;;;-8.87
39959;BMP280;25639;53.634;9.880;2023-02-28T00:04:44;150191.91;;;-8.85
39959;BMP280;25639;53.634;9.880;2023-02-28T00:07:10;150190.66;;;-8.85
39959;BMP280;25639;53.634;9.880;2023-02-28T00:09:35;150191.91;;;-8.85
39959;BMP280;25639;53.634;9.880;2023-02-28T00:12:00;150185.59;;;-8.87
39959;BMP280;25639;53.634;9.880;2023-02-28T00:14:35;150189.38;;;-8.86
39959;BMP280;25639;53.634;9.880;2023-02-28T00:17:00;150189.38;;;-8.86
39959;BMP280;25639;53.634;9.880;2023-02-28T00:19:26;150198.19;;;-8.82
39959;BMP280;25639;53.634;9.880;2023-02-28T00:21:51;150191.91;;;-8.85
39959;BMP280;25639;53.634;9.880;2023-02-28T00:24:16;150185.59;;;-8.87
39959;BMP280;25639;53.634;9.880;2023-02-28T00:26:41;150183.13;;;-8.88
39959;BMP280;25639;53.634;9.880;2023-02-28T00:29:08;150178.09;;;-8.90
39959;BMP280;25639;53.634;9.880;2023-02-28T00:31:33;150169.28;;;-8.94
39959;BMP280;25639;53.634;9.880;2023-02-28T00:33:58;150160.50;;;-8.97
39959;BMP280;25639;53.634;9.880;2023-02-28T00:36:24;150152.94;;;-9.01
39959;BMP280;25639;53.634;9.880;2023-02-28T00:38:49;150137.84;;;-9.07
39959;BMP280;25639;53.634;9.880;2023-02-28T00:41:14;150142.91;;;-9.05
39959;BMP280;25639;53.634;9.880;2023-02-28T00:43:40;150142.91;;;-9.05
39959;BMP280;25639;53.634;9.880;2023-02-28T00:46:05;150130.34;;;-9.10
39959;BMP280;25639;53.634;9.880;2023-02-28T00:48:32;150130.34;;;-9.10
39959;BMP280;25639;53.634;9.880;2023-02-28T00:50:57;150126.56;;;-9.11
39959;BMP280;25639;53.634;9.880;2023-02-28T00:53:22;150121.53;;;-9.13
39959;BMP280;25639;53.634;9.880;2023-02-28T00:55:49;150120.25;;;-9.14
39959;BMP280;25639;53.634;9.880;2023-02-28T00:58:14;150110.22;;;-9.18
39959;BMP280;25639;53.634;9.880;2023-02-28T01:00:39;150087.59;;;-9.27
39959;BMP280;25639;53.634;9.880;2023-02-28T01:03:05;150048.66;;;-9.43
39959;BMP280;25639;53.634;9.880;2023-02-28T01:05:30;150062.47;;;-9.37
39959;BMP280;25639;53.634;9.880;2023-02-28T01:07:55;150071.25;;;-9.34
39959;BMP280;25639;53.634;9.880;2023-02-28T01:10:20;150080.03;;;-9.30
39959;BMP280;25639;53.634;9.880;2023-02-28T01:12:46;150075.03;;;-9.32
39959;BMP280;25639;53.634;9.880;2023-02-28T01:15:11;150066.22;;;-9.36
39959;BMP280;25639;53.634;9.880;2023-02-28T01:17:36;150041.09;;;-9.46
39959;BMP280;25639;53.634;9.880;2023-02-28T01:20:03;150039.84;;;-9.47
39959;BMP280;25639;53.634;9.880;2023-02-28T01:22:28;150032.31;;;-9.50
39959;BMP280;25639;53.634;9.880;2023-02-28T01:24:54;150022.25;;;-9.54
39959;BMP280;25639;53.634;9.880;2023-02-28T01:27:19;149992.13;;;-9.66
39959;BMP280;25639;53.634;9.880;2023-02-28T01:29:45;149993.34;;;-9.66
39959;BMP280;25639;53.634;9.880;2023-02-28T01:32:10;149998.44;;;-9.64
39959;BMP280;25639;53.634;9.880;2023-02-28T01:34:35;149993.34;;;-9.66
39959;BMP280;25639;53.634;9.880;2023-02-28T01:37:00;149961.97;;;-9.79
39959;BMP280;25639;53.634;9.880;2023-02-28T01:39:26;149970.75;;;-9.75
39959;BMP280;25639;53.634;9.880;2023-02-28T01:41:52;149995.88;;;-9.65
39959;BMP280;25639;53.634;9.880;2023-02-28T01:47:20;149946.91;;;-9.85
39959;BMP280;25639;53.634;9.880;2023-02-28T01:49:47;149965.75;;;-9.77
39959;BMP280;25639;53.634;9.880;2023-02-28T01:52:13;149951.94;;;-9.83
39959;BMP280;25639;53.634;9.880;2023-02-28T01:54:46;149924.31;;;-9.94
39959;BMP280;25639;53.634;9.880;2023-02-28T01:57:16;149953.19;;;-9.82
39959;BMP280;25639;53.634;9.880;2023-02-28T01:59:51;149974.53;;;-9.73
39959;BMP280;25639;53.634;9.880;2023-02-28T02:02:19;149958.19;;;-9.80
39959;BMP280;25639;53.634;9.880;2023-02-28T02:05:04;149951.94;;;-9.83
39959;BMP280;25639;53.634;9.880;2023-02-28T02:07:33;149968.28;;;-9.76
39959;BMP280;25639;53.634;9.880;2023-02-28T02:10:03;149949.41;;;-9.84
39959;BMP280;25639;53.634;9.880;2023-02-28T02:15:44;149964.50;;;-9.78
39959;BMP280;25639;53.634;9.880;2023-02-28T02:18:36;149970.75;;;-9.75
39959;BMP280;25639;53.634;9.880;2023-02-28T02:24:00;149956.94;;;-9.81
39959;BMP280;25639;53.634;9.880;2023-02-28T02:26:52;149920.56;;;-9.95
39959;BMP280;25639;53.634;9.880;2023-02-28T02:29:32;149950.69;;;-9.83
39959;BMP280;25639;53.634;9.880;2023-02-28T02:35:34;149979.56;;;-9.71
39959;BMP280;25639;53.634;9.880;2023-02-28T02:43:50;149940.63;;;-9.87
39959;BMP280;25639;53.634;9.880;2023-02-28T02:46:27;149943.16;;;-9.86
39959;BMP280;25639;53.634;9.880;2023-02-28T02:48:55;149936.88;;;-9.89
39959;BMP280;25639;53.634;9.880;2023-02-28T02:51:23;149945.69;;;-9.85
39959;BMP280;25639;53.634;9.880;2023-02-28T02:53:53;149949.41;;;-9.84
39959;BMP280;25639;53.634;9.880;2023-02-28T02:56:24;149954.47;;;-9.82
39959;BMP280;25639;53.634;9.880;2023-02-28T02:58:53;149955.72;;;-9.81
39959;BMP280;25639;53.634;9.880;2023-02-28T03:01:23;149944.38;;;-9.86
39959;BMP280;25639;53.634;9.880;2023-02-28T03:03:57;149929.34;;;-9.92
39959;BMP280;25639;53.634;9.880;2023-02-28T03:06:24;149925.56;;;-9.93
39959;BMP280;25639;53.634;9.880;2023-02-28T03:08:49;149904.22;;;-10.02
39959;BMP280;25639;53.634;9.880;2023-02-28T03:11:15;149896.66;;;-10.05
39959;BMP280;25639;53.634;9.880;2023-02-28T03:16:52;149821.41;;;-10.36
39959;BMP280;25639;53.634;9.880;2023-02-28T03:22:29;149813.84;;;-10.39
39959;BMP280;25639;53.634;9.880;2023-02-28T03:27:42;149811.38;;;-10.40
39959;BMP280;25639;53.634;9.880;2023-02-28T03:30:24;149813.84;;;-10.39
39959;BMP280;25639;53.634;9.880;2023-02-28T03:33:03;149805.06;;;-10.43
39959;BMP280;25639;53.634;9.880;2023-02-28T03:35:43;149766.16;;;-10.59
39959;BMP280;25639;53.634;9.880;2023-02-28T03:39:03;149769.94;;;-10.57
39959;BMP280;25639;53.634;9.880;2023-02-28T03:42:05;149754.88;;;-10.63
39959;BMP280;25639;53.634;9.880;2023-02-28T03:44:39;149768.69;;;-10.58
39959;BMP280;25639;53.634;9.880;2023-02-28T03:47:16;149773.69;;;-10.56
39959;BMP280;25639;53.634;9.880;2023-02-28T03:49:57;149777.47;;;-10.54
39959;BMP280;25639;53.634;9.880;2023-02-28T03:52:27;149763.66;;;-10.60
39959;BMP280;25639;53.634;9.880;2023-02-28T03:54:58;149756.13;;;-10.63
39959;BMP280;25639;53.634;9.880;2023-02-28T03:57:35;149754.88;;;-10.63
39959;BMP280;25639;53.634;9.880;2023-02-28T04:00:06;149731.00;;;-10.73
39959;BMP280;25639;53.634;9.880;2023-02-28T04:02:33;149718.50;;;-10.78
39959;BMP280;25639;53.634;9.880;2023-02-28T04:05:00;149694.63;;;-10.88
39959;BMP280;25639;53.634;9.880;2023-02-28T04:07:29;149703.44;;;-10.84
39959;BMP280;25639;53.634;9.880;2023-02-28T04:09:54;149662.03;;;-11.01
39959;BMP280;25639;53.634;9.880;2023-02-28T04:12:20;149653.25;;;-11.05
39959;BMP280;25639;53.634;9.880;2023-02-28T04:14:46;149654.50;;;-11.04
39959;BMP280;25639;53.634;9.880;2023-02-28T04:17:11;149636.94;;;-11.12
39959;BMP280;25639;53.634;9.880;2023-02-28T04:19:36;149586.75;;;-11.32
39959;BMP280;25639;53.634;9.880;2023-02-28T04:22:01;149532.84;;;-11.54
39959;BMP280;25639;53.634;9.880;2023-02-28T04:24:27;149515.28;;;-11.61
39959;BMP280;25639;53.634;9.880;2023-02-28T04:26:55;149490.19;;;-11.72
39959;BMP280;25639;53.634;9.880;2023-02-28T04:29:23;149472.63;;;-11.79
39959;BMP280;25639;53.634;9.880;2023-02-28T04:31:49;149460.09;;;-11.84
39959;BMP280;25639;53.634;9.880;2023-02-28T04:34:14;149478.94;;;-11.76
39959;BMP280;25639;53.634;9.880;2023-02-28T04:36:40;149495.19;;;-11.70
39959;BMP280;25639;53.634;9.880;2023-02-28T04:39:05;149488.94;;;-11.72
39959;BMP280;25639;53.634;9.880;2023-02-28T04:41:30;149478.94;;;-11.76
39959;BMP280;25639;53.634;9.880;2023-02-28T04:43:56;149486.41;;;-11.73
39959;BMP280;25639;53.634;9.880;2023-02-28T04:46:22;149485.19;;;-11.74
39959;BMP280;25639;53.634;9.880;2023-02-28T04:48:48;149480.16;;;-11.76
39959;BMP280;25639;53.634;9.880;2023-02-28T04:51:15;149466.38;;;-11.81
39959;BMP280;25639;53.634;9.880;2023-02-28T04:53:41;149442.59;;;-11.91
39959;BMP280;25639;53.634;9.880;2023-02-28T04:56:09;149442.59;;;-11.91
39959;BMP280;25639;53.634;9.880;2023-02-28T04:58:36;149412.53;;;-12.03
39959;BMP280;25639;53.634;9.880;2023-02-28T05:01:07;149430.09;;;-11.96
39959;BMP280;25639;53.634;9.880;2023-02-28T05:03:40;149420.03;;;-12.00
39959;BMP280;25639;53.634;9.880;2023-02-28T05:06:06;149411.25;;;-12.04
39959;BMP280;25639;53.634;9.880;2023-02-28T05:08:32;149408.78;;;-12.05
39959;BMP280;25639;53.634;9.880;2023-02-28T05:10:57;149393.72;;;-12.11
39959;BMP280;25639;53.634;9.880;2023-02-28T05:13:22;149389.94;;;-12.13
39959;BMP280;25639;53.634;9.880;2023-02-28T05:15:48;149377.41;;;-12.18
39959;BMP280;25639;53.634;9.880;2023-02-28T05:18:13;149358.63;;;-12.25
39959;BMP280;25639;53.634;9.880;2023-02-28T05:20:38;149346.09;;;-12.31
39959;BMP280;25639;53.634;9.880;2023-02-28T05:23:03;149326.06;;;-12.39
39959;BMP280;25639;53.634;9.880;2023-02-28T05:25:29;149323.53;;;-12.40
39959;BMP280;25639;53.634;9.880;2023-02-28T05:27:54;149321.06;;;-12.41
39959;BMP280;25639;53.634;9.880;2023-02-28T05:30:19;149317.28;;;-12.42
39959;BMP280;25639;53.634;9.880;2023-02-28T05:32:50;149307.22;;;-12.47
39959;BMP280;25639;53.634;9.880;2023-02-28T05:35:15;149317.28;;;-12.42
39959;BMP280;25639;53.634;9.880;2023-02-28T05:37:41;149267.16;;;-12.63
39959;BMP280;25639;53.634;9.880;2023-02-28T05:40:06;149229.59;;;-12.78
39959;BMP280;25639;53.634;9.880;2023-02-28T05:42:35;149210.78;;;-12.86
39959;BMP280;25639;53.634;9.880;2023-02-28T05:45:00;149184.47;;;-12.97
39959;BMP280;25639;53.634;9.880;2023-02-28T05:47:26;149164.47;;;-13.05
39959;BMP280;25639;53.634;9.880;2023-02-28T05:49:51;149154.41;;;-13.09
39959;BMP280;25639;53.634;9.880;2023-02-28T05:52:17;149163.19;;;-13.06
39959;BMP280;25639;53.634;9.880;2023-02-28T05:54:42;149163.19;;;-13.06
39959;BMP280;25639;53.634;9.880;2023-02-28T05:57:08;149161.94;;;-13.06
39959;BMP280;25639;53.634;9.880;2023-02-28T05:59:33;149155.69;;;-13.09
39959;BMP280;25639;53.634;9.880;2023-02-28T06:01:58;149139.41;;;-13.15
39959;BMP280;25639;53.634;9.880;2023-02-28T06:04:23;149139.41;;;-13.15
39959;BMP280;25639;53.634;9.880;2023-02-28T06:06:49;149140.66;;;-13.15
39959;BMP280;25639;53.634;9.880;2023-02-28T06:09:15;149131.88;;;-13.18
39959;BMP280;25639;53.634;9.880;2023-02-28T06:11:41;149101.88;;;-13.31
39959;BMP280;25639;53.634;9.880;2023-02-28T06:14:07;149099.41;;;-13.32
39959;BMP280;25639;53.634;9.880;2023-02-28T06:16:37;149088.09;;;-13.36
39959;BMP280;25639;53.634;9.880;2023-02-28T06:19:04;149101.88;;;-13.31
39959;BMP280;25639;53.634;9.880;2023-02-28T06:21:30;149100.63;;;-13.31
39959;BMP280;25639;53.634;9.880;2023-02-28T06:23:57;149089.34;;;-13.36
39959;BMP280;25639;53.634;9.880;2023-02-28T06:26:22;149103.09;;;-13.30
39959;BMP280;25639;53.634;9.880;2023-02-28T06:28:48;149116.88;;;-13.25
39959;BMP280;25639;53.634;9.880;2023-02-28T06:31:15;149106.81;;;-13.29
39959;BMP280;25639;53.634;9.880;2023-02-28T06:33:42;149109.34;;;-13.28
39959;BMP280;25639;53.634;9.880;2023-02-28T06:36:08;149109.34;;;-13.28
39959;BMP280;25639;53.634;9.880;2023-02-28T06:38:34;149105.59;;;-13.29
39959;BMP280;25639;53.634;9.880;2023-02-28T06:41:00;149108.09;;;-13.28
39959;BMP280;25639;53.634;9.880;2023-02-28T06:43:28;149113.09;;;-13.26
39959;BMP280;25639;53.634;9.880;2023-02-28T06:45:55;149106.81;;;-13.29
39959;BMP280;25639;53.634;9.880;2023-02-28T06:48:21;149126.88;;;-13.20
39959;BMP280;25639;53.634;9.880;2023-02-28T06:50:47;149139.41;;;-13.15
39959;BMP280;25639;53.634;9.880;2023-02-28T06:53:12;149179.47;;;-12.99
39959;BMP280;25639;53.634;9.880;2023-02-28T06:55:39;149212.06;;;-12.86
39959;BMP280;25639;53.634;9.880;2023-02-28T06:58:04;149318.53;;;-12.42
39959;BMP280;25639;53.634;9.880;2023-02-28T07:00:40;149436.34;;;-11.94
39959;BMP280;25639;53.634;9.880;2023-02-28T07:03:05;149487.72;;;-11.73
39959;BMP280;25639;53.634;9.880;2023-02-28T07:05:30;149491.47;;;-11.71
39959;BMP280;25639;53.634;9.880;2023-02-28T07:07:56;149555.41;;;-11.45
39959;BMP280;25639;53.634;9.880;2023-02-28T07:10:22;149640.72;;;-11.10
39959;BMP280;25639;53.634;9.880;2023-02-28T07:12:47;149670.81;;;-10.98
39959;BMP280;25639;53.634;9.880;2023-02-28T07:15:12;149680.84;;;-10.94
39959;BMP280;25639;53.634;9.880;2023-02-28T07:17:37;149763.66;;;-10.60
39959;BMP280;25639;53.634;9.880;2023-02-28T07:20:03;149769.94;;;-10.57
39959;BMP280;25639;53.634;9.880;2023-02-28T07:22:29;149859.03;;;-10.21
39959;BMP280;25639;53.634;9.880;2023-02-28T07:24:54;149828.94;;;-10.33
39959;BMP280;25639;53.634;9.880;2023-02-28T07:27:20;149944.38;;;-9.86
39959;BMP280;25639;53.634;9.880;2023-02-28T07:29:50;150130.34;;;-9.10
39959;BMP280;25639;53.634;9.880;2023-02-28T07:32:16;150140.38;;;-9.06
39959;BMP280;25639;53.634;9.880;2023-02-28T07:34:41;150336.44;;;-8.26
39959;BMP280;25639;53.634;9.880;2023-02-28T07:37:06;150347.72;;;-8.21
39959;BMP280;25639;53.634;9.880;2023-02-28T07:39:32;150346.50;;;-8.21
39959;BMP280;25639;53.634;9.880;2023-02-28T07:41:57;150310.03;;;-8.36
39959;BMP280;25639;53.634;9.880;2023-02-28T07:44:24;150360.31;;;-8.16
39959;BMP280;25639;53.634;9.880;2023-02-28T07:46:50;150310.03;;;-8.36
39959;BMP280;25639;53.634;9.880;2023-02-28T07:49:15;150356.53;;;-8.17
39959;BMP280;25639;53.634;9.880;2023-02-28T07:51:40;150591.81;;;-7.21
39959;BMP280;25639;53.634;9.880;2023-02-28T07:54:05;150649.72;;;-6.98
39959;BMP280;25639;53.634;9.880;2023-02-28T07:56:31;150755.47;;;-6.55
39959;BMP280;25639;53.634;9.880;2023-02-28T07:58:56;150819.72;;;-6.28
39959;BMP280;25639;53.634;9.880;2023-02-28T08:01:21;150959.50;;;-5.71
39959;BMP280;25639;53.634;9.880;2023-02-28T08:03:47;151037.66;;;-5.40
39959;BMP280;25639;53.634;9.880;2023-02-28T08:06:20;151043.94;;;-5.37
39959;BMP280;25639;53.634;9.880;2023-02-28T08:08:47;151216.72;;;-4.67
39959;BMP280;25639;53.634;9.880;2023-02-28T08:11:12;151229.28;;;-4.62
39959;BMP280;25639;53.634;9.880;2023-02-28T08:13:38;151289.84;;;-4.37
39959;BMP280;25639;53.634;9.880;2023-02-28T08:16:03;151368.09;;;-4.05
39959;BMP280;25639;53.634;9.880;2023-02-28T08:18:28;151384.50;;;-3.98
39959;BMP280;25639;53.634;9.880;2023-02-28T08:20:54;151491.75;;;-3.55
39959;BMP280;25639;53.634;9.880;2023-02-28T08:23:19;151460.22;;;-3.68
39959;BMP280;25639;53.634;9.880;2023-02-28T08:25:44;151618.03;;;-3.03
39959;BMP280;25639;53.634;9.880;2023-02-28T08:28:09;151517.03;;;-3.45
39959;BMP280;25639;53.634;9.880;2023-02-28T08:30:35;151335.31;;;-4.18
39959;BMP280;25639;53.634;9.880;2023-02-28T08:33:00;151424.88;;;-3.82
39959;BMP280;25639;53.634;9.880;2023-02-28T08:35:26;151677.38;;;-2.79
39959;BMP280;25639;53.634;9.880;2023-02-28T08:37:52;151578.88;;;-3.19
39959;BMP280;25639;53.634;9.880;2023-02-28T08:40:17;151628.13;;;-2.99
39959;BMP280;25639;53.634;9.880;2023-02-28T08:42:45;151652.16;;;-2.90
39959;BMP280;25639;53.634;9.880;2023-02-28T08:45:12;151732.97;;;-2.57
39959;BMP280;25639;53.634;9.880;2023-02-28T08:47:37;151523.31;;;-3.42
39959;BMP280;25639;53.634;9.880;2023-02-28T08:50:03;151576.34;;;-3.20
39959;BMP280;25639;53.634;9.880;2023-02-28T08:52:29;151640.75;;;-2.94
39959;BMP280;25639;53.634;9.880;2023-02-28T08:54:54;151720.34;;;-2.62
39959;BMP280;25639;53.634;9.880;2023-02-28T08:57:20;151667.28;;;-2.83
39959;BMP280;25639;53.634;9.880;2023-02-28T08:59:45;151746.88;;;-2.51
39959;BMP280;25639;53.634;9.880;2023-02-28T09:02:13;151561.22;;;-3.27
39959;BMP280;25639;53.634;9.880;2023-02-28T09:04:39;151671.09;;;-2.82
39959;BMP280;25639;53.634;9.880;2023-02-28T09:07:04;151842.91;;;-2.12
39959;BMP280;25639;53.634;9.880;2023-02-28T09:09:29;151846.72;;;-2.11
39959;BMP280;25639;53.634;9.880;2023-02-28T09:11:56;151730.44;;;-2.58
39959;BMP280;25639;53.634;9.880;2023-02-28T09:14:21;151707.69;;;-2.67
39959;BMP280;25639;53.634;9.880;2023-02-28T09:16:46;151600.34;;;-3.11
39959;BMP280;25639;53.634;9.880;2023-02-28T09:19:12;151695.06;;;-2.72
39959;BMP280;25639;53.634;9.880;2023-02-28T09:21:37;151711.50;;;-2.65
39959;BMP280;25639;53.634;9.880;2023-02-28T09:24:03;151590.28;;;-3.15
39959;BMP280;25639;53.634;9.880;2023-02-28T09:26:28;151629.38;;;-2.99
39959;BMP280;25639;53.634;9.880;2023-02-28T09:28:54;151720.34;;;-2.62
39959;BMP280;25639;53.634;9.880;2023-02-28T09:31:25;151629.38;;;-2.99
39959;BMP280;25639;53.634;9.880;2023-02-28T09:33:53;151734.22;;;-2.56
39959;BMP280;25639;53.634;9.880;2023-02-28T09:36:19;151717.84;;;-2.63
39959;BMP280;25639;53.634;9.880;2023-02-28T09:38:45;151671.09;;;-2.82
39959;BMP280;25639;53.634;9.880;2023-02-28T09:41:15;151648.34;;;-2.91
39959;BMP280;25639;53.634;9.880;2023-02-28T09:43:45;151607.94;;;-3.08
39959;BMP280;25639;53.634;9.880;2023-02-28T09:46:28;151696.34;;;-2.72
39959;BMP280;25639;53.634;9.880;2023-02-28T09:48:56;151559.97;;;-3.27
39959;BMP280;25639;53.634;9.880;2023-02-28T09:51:27;151500.59;;;-3.51
39959;BMP280;25639;53.634;9.880;2023-02-28T09:53:53;151628.13;;;-2.99
39959;BMP280;25639;53.634;9.880;2023-02-28T09:56:22;151576.34;;;-3.20
39959;BMP280;25639;53.634;9.880;2023-02-28T09:59:21;151547.31;;;-3.32
39959;BMP280;25639;53.634;9.880;2023-02-28T10:04:47;151464.00;;;-3.66
39959;BMP280;25639;53.634;9.880;2023-02-28T10:10:24;151457.66;;;-3.69
39959;BMP280;25639;53.634;9.880;2023-02-28T10:12:53;151433.72;;;-3.78
39959;BMP280;25639;53.634;9.880;2023-02-28T10:15:22;151298.69;;;-4.33
39959;BMP280;25639;53.634;9.880;2023-02-28T10:17:54;151337.78;;;-4.17
39959;BMP280;25639;53.634;9.880;2023-02-28T10:20:22;151400.88;;;-3.92
39959;BMP280;25639;53.634;9.880;2023-02-28T10:23:07;151364.28;;;-4.07
39959;BMP280;25639;53.634;9.880;2023-02-28T10:25:35;151244.47;;;-4.55
39959;BMP280;25639;53.634;9.880;2023-02-28T10:28:09;151193.97;;;-4.76
39959;BMP280;25639;53.634;9.880;2023-02-28T10:30:38;151137.22;;;-4.99
39959;BMP280;25639;53.634;9.880;2023-02-28T10:33:03;151061.59;;;-5.30
39959;BMP280;25639;53.634;9.880;2023-02-28T10:35:29;151109.50;;;-5.10
39959;BMP280;25639;53.634;9.880;2023-02-28T10:37:56;151205.34;;;-4.71
39959;BMP280;25639;53.634;9.880;2023-02-28T10:43:18;151152.38;;;-4.93
39959;BMP280;25639;53.634;9.880;2023-02-28T10:46:04;151109.50;;;-5.10
39959;BMP280;25639;53.634;9.880;2023-02-28T10:48:38;151094.41;;;-5.17
39959;BMP280;25639;53.634;9.880;2023-02-28T10:51:07;151094.41;;;-5.17
39959;BMP280;25639;53.634;9.880;2023-02-28T10:53:52;151103.22;;;-5.13
39959;BMP280;25639;53.634;9.880;2023-02-28T10:56:29;151156.19;;;-4.91
39959;BMP280;25639;53.634;9.880;2023-02-28T10:59:03;151206.59;;;-4.71
39959;BMP280;25639;53.634;9.880;2023-02-28T11:03:57;151148.59;;;-4.94
39959;BMP280;25639;53.634;9.880;2023-02-28T11:06:32;151165.00;;;-4.88
39959;BMP280;25639;53.634;9.880;2023-02-28T11:09:00;151166.25;;;-4.87
39959;BMP280;25639;53.634;9.880;2023-02-28T11:11:28;151154.88;;;-4.92
39959;BMP280;25639;53.634;9.880;2023-02-28T11:14:04;151154.88;;;-4.92
39959;BMP280;25639;53.634;9.880;2023-02-28T11:16:35;151138.53;;;-4.99
39959;BMP280;25639;53.634;9.880;2023-02-28T11:19:01;151104.47;;;-5.12
39959;BMP280;25639;53.634;9.880;2023-02-28T11:21:30;151149.84;;;-4.94
39959;BMP280;25639;53.634;9.880;2023-02-28T11:26:40;151202.81;;;-4.72
39959;BMP280;25639;53.634;9.880;2023-02-28T11:29:18;151225.56;;;-4.63
39959;BMP280;25639;53.634;9.880;2023-02-28T11:32:01;151197.78;;;-4.74
39959;BMP280;25639;53.634;9.880;2023-02-28T11:34:27;151250.75;;;-4.53
39959;BMP280;25639;53.634;9.880;2023-02-28T11:36:54;151244.47;;;-4.55
39959;BMP280;25639;53.634;9.880;2023-02-28T11:39:22;151249.50;;;-4.53
39959;BMP280;25639;53.634;9.880;2023-02-28T11:45:02;151170.03;;;-4.86
39959;BMP280;25639;53.634;9.880;2023-02-28T11:56:33;151187.69;;;-4.79
39959;BMP280;25639;53.634;9.880;2023-02-28T12:02:16;151123.38;;;-5.05
39959;BMP280;25639;53.634;9.880;2023-02-28T12:05:17;151186.44;;;-4.79
39959;BMP280;25639;53.634;9.880;2023-02-28T12:08:25;151240.66;;;-4.57
39959;BMP280;25639;53.634;9.880;2023-02-28T12:13:52;151279.78;;;-4.41
39959;BMP280;25639;53.634;9.880;2023-02-28T12:16:35;151288.59;;;-4.37
39959;BMP280;25639;53.634;9.880;2023-02-28T12:19:27;151336.53;;;-4.18
39959;BMP280;25639;53.634;9.880;2023-02-28T12:24:55;151301.22;;;-4.32
39959;BMP280;25639;53.634;9.880;2023-02-28T12:27:29;151374.38;;;-4.03
39959;BMP280;25639;53.634;9.880;2023-02-28T12:30:03;151433.72;;;-3.78
39959;BMP280;25639;53.634;9.880;2023-02-28T12:32:32;151392.03;;;-3.95
39959;BMP280;25639;53.634;9.880;2023-02-28T12:35:14;151384.50;;;-3.98
39959;BMP280;25639;53.634;9.880;2023-02-28T12:37:44;151355.47;;;-4.10
39959;BMP280;25639;53.634;9.880;2023-02-28T12:40:15;151385.75;;;-3.98
39959;BMP280;25639;53.634;9.880;2023-02-28T12:42:50;151380.72;;;-4.00
39959;BMP280;25639;53.634;9.880;2023-02-28T12:45:20;151363.03;;;-4.07
39959;BMP280;25639;53.634;9.880;2023-02-28T12:47:49;151364.28;;;-4.07
39959;BMP280;25639;53.634;9.880;2023-02-28T12:50:16;151392.03;;;-3.95
39959;BMP280;25639;53.634;9.880;2023-02-28T13:01:32;151475.34;;;-3.61
39959;BMP280;25639;53.634;9.880;2023-02-28T13:07:05;151438.75;;;-3.76
39959;BMP280;25639;53.634;9.880;2023-02-28T13:09:37;151481.69;;;-3.59
39959;BMP280;25639;53.634;9.880;2023-02-28T13:12:12;151533.44;;;-3.38
39959;BMP280;25639;53.634;9.880;2023-02-28T13:14:38;151511.97;;;-3.47
39959;BMP280;25639;53.634;9.880;2023-02-28T13:19:36;151471.59;;;-3.63
39959;BMP280;25639;53.634;9.880;2023-02-28T13:22:02;151440.00;;;-3.76
39959;BMP280;25639;53.634;9.880;2023-02-28T13:29:40;151484.19;;;-3.58
39959;BMP280;25639;53.634;9.880;2023-02-28T13:35:11;151480.44;;;-3.59
39959;BMP280;25639;53.634;9.880;2023-02-28T13:37:35;151515.78;;;-3.45
39959;BMP280;25639;53.634;9.880;2023-02-28T13:47:30;151520.81;;;-3.43
39959;BMP280;25639;53.634;9.880;2023-02-28T13:53:00;151543.53;;;-3.34
39959;BMP280;25639;53.634;9.880;2023-02-28T13:55:52;151480.44;;;-3.59
39959;BMP280;25639;53.634;9.880;2023-02-28T13:58:46;151500.59;;;-3.51
39959;BMP280;25639;53.634;9.880;2023-02-28T14:06:51;151474.09;;;-3.62
39959;BMP280;25639;53.634;9.880;2023-02-28T14:09:30;151389.53;;;-3.96
39959;BMP280;25639;53.634;9.880;2023-02-28T14:15:01;151413.50;;;-3.87
39959;BMP280;25639;53.634;9.880;2023-02-28T14:17:27;151452.63;;;-3.71
39959;BMP280;25639;53.634;9.880;2023-02-28T14:19:53;151408.47;;;-3.89
39959;BMP280;25639;53.634;9.880;2023-02-28T14:23:32;151412.25;;;-3.87
39959;BMP280;25639;53.634;9.880;2023-02-28T14:28:40;151407.22;;;-3.89
39959;BMP280;25639;53.634;9.880;2023-02-28T14:31:12;151437.50;;;-3.77
39959;BMP280;25639;53.634;9.880;2023-02-28T14:33:45;151451.38;;;-3.71
39959;BMP280;25639;53.634;9.880;2023-02-28T14:36:21;151452.63;;;-3.71
39959;BMP280;25639;53.634;9.880;2023-02-28T14:38:52;151465.25;;;-3.66
39959;BMP280;25639;53.634;9.880;2023-02-28T14:41:30;151456.41;;;-3.69
39959;BMP280;25639;53.634;9.880;2023-02-28T14:43:58;151429.91;;;-3.80
39959;BMP280;25639;53.634;9.880;2023-02-28T14:46:37;151417.28;;;-3.85
39959;BMP280;25639;53.634;9.880;2023-02-28T14:49:04;151414.78;;;-3.86
39959;BMP280;25639;53.634;9.880;2023-02-28T14:51:31;151370.63;;;-4.04
39959;BMP280;25639;53.634;9.880;2023-02-28T14:54:00;151381.97;;;-3.99
39959;BMP280;25639;53.634;9.880;2023-02-28T14:56:29;151332.75;;;-4.19
39959;BMP280;25639;53.634;9.880;2023-02-28T14:58:57;151349.16;;;-4.13
39959;BMP280;25639;53.634;9.880;2023-02-28T15:01:24;151387.00;;;-3.97
39959;BMP280;25639;53.634;9.880;2023-02-28T15:04:01;151361.78;;;-4.08
39959;BMP280;25639;53.634;9.880;2023-02-28T15:06:28;151344.13;;;-4.15
39959;BMP280;25639;53.634;9.880;2023-02-28T15:09:14;151334.00;;;-4.19
39959;BMP280;25639;53.634;9.880;2023-02-28T15:11:40;151328.97;;;-4.21
39959;BMP280;25639;53.634;9.880;2023-02-28T15:14:14;151313.84;;;-4.27
39959;BMP280;25639;53.634;9.880;2023-02-28T15:16:41;151293.63;;;-4.35
39959;BMP280;25639;53.634;9.880;2023-02-28T15:19:26;151292.41;;;-4.36
39959;BMP280;25639;53.634;9.880;2023-02-28T15:21:58;151281.03;;;-4.41
39959;BMP280;25639;53.634;9.880;2023-02-28T15:24:41;151283.56;;;-4.39
39959;BMP280;25639;53.634;9.880;2023-02-28T15:27:29;151275.97;;;-4.43
39959;BMP280;25639;53.634;9.880;2023-02-28T15:29:59;151260.88;;;-4.49
39959;BMP280;25639;53.634;9.880;2023-02-28T15:32:31;151257.06;;;-4.50
39959;BMP280;25639;53.634;9.880;2023-02-28T15:34:58;151225.56;;;-4.63
39959;BMP280;25639;53.634;9.880;2023-02-28T15:37:39;151230.59;;;-4.61
39959;BMP280;25639;53.634;9.880;2023-02-28T15:42:37;151197.78;;;-4.74
39959;BMP280;25639;53.634;9.880;2023-02-28T15:45:03;151181.38;;;-4.81
39959;BMP280;25639;53.634;9.880;2023-02-28T15:47:30;151156.19;;;-4.91
39959;BMP280;25639;53.634;9.880;2023-02-28T15:50:06;151139.78;;;-4.98
39959;BMP280;25639;53.634;9.880;2023-02-28T15:52:41;151120.88;;;-5.06
39959;BMP280;25639;53.634;9.880;2023-02-28T15:55:27;151119.56;;;-5.06
39959;BMP280;25639;53.634;9.880;2023-02-28T15:57:56;151089.38;;;-5.19